Time;durP1;ratioP1;P1;durP2;ratioP2;P2;SDS_P1;SDS_P2;PMS_P1;PMS_P2;Temp;Humidity;BMP_temperature;BMP_pressure;BME280_temperature;BME280_humidity;BME280_pressure;Samples;Min_cycle;Max_cycle;Signal;HPM_P1;HPM_P2
2023/04/07 00:01:26;;;;;;;47.10;16.80;;;;;;;;;;107039;1274;23676;-80
2023/04/07 00:03:55;;;;;;;41.00;13.30;;;;;;;;;;107038;1274;22635;-80
2023/04/07 00:09:46;;;;;;;41.50;15.60;;;;;;;;;;107153;1274;25423;-80
2023/04/07 00:12:13;;;;;;;42.60;15.70;;;;;;;;;;106997;1259;22865;-79
2023/04/07 00:14:50;;;;;;;;;;;;;;;;;;;;;
2023/04/07 00:17:38;;;;;;;42.90;15.00;;;;;;;;;;106766;1279;25321;-79
2023/04/07 00:20:06;;;;;;;38.30;15.90;;;;;;;;;;106753;1278;24225;-82
2023/04/07 00:22:44;;;;;;;35.70;14.50;;;;;;;;;;106759;1262;24355;-78
2023/04/07 00:25:17;;;;;;;32.20;13.80;;;;;;;;;;106811;1278;22524;-78
2023/04/07 00:27:47;;;;;;;34.10;13.70;;;;;;;;;;106747;1278;22698;-77
2023/04/07 00:30:17;;;;;;;27.00;11.50;;;;;;;;;;106618;1278;25359;-77
2023/04/07 00:32:57;;;;;;;25.50;11.70;;;;;;;;;;106789;1259;24516;-76
2023/04/07 00:39:34;;;;;;;26.00;11.90;;;;;;;;;;106355;1285;25325;-79
2023/04/07 00:41:46;;;;;;;24.70;9.80;;;;;;;;;;106293;1284;25351;-76
2023/04/07 00:44:13;;;;;;;25.50;11.70;;;;;;;;;;106347;1265;22543;-79
2023/04/07 00:47:06;;;;;;;23.40;11.40;;;;;;;;;;106339;1285;24433;-77
2023/04/07 00:49:33;;;;;;;24.00;11.10;;;;;;;;;;105988;1288;22536;-77
2023/04/07 00:52:00;;;;;;;24.90;12.30;;;;;;;;;;106008;1288;22540;-75
2023/04/07 00:54:29;;;;;;;26.00;12.80;;;;;;;;;;105951;1284;25339;-76
2023/04/07 00:56:56;;;;;;;26.30;12.40;;;;;;;;;;106043;1287;25527;-79
2023/04/07 00:59:28;;;;;;;24.90;12.70;;;;;;;;;;105953;1287;22558;-79
2023/04/07 01:02:03;;;;;;;23.90;12.90;;;;;;;;;;106072;1287;25278;-78
2023/04/07 01:04:45;;;;;;;23.30;11.50;;;;;;;;;;105993;1277;23056;-76
2023/04/07 01:10:26;;;;;;;24.10;11.00;;;;;;;;;;106406;1283;25315;-77
2023/04/07 01:13:26;;;;;;;24.20;11.10;;;;;;;;;;106397;1283;24259;-79
2023/04/07 01:16:00;;;;;;;23.50;11.60;;;;;;;;;;106336;1283;25407;-76
2023/04/07 01:18:34;;;;;;;23.70;12.60;;;;;;;;;;106277;1283;25399;-76
2023/04/07 01:21:03;;;;;;;25.40;12.70;;;;;;;;;;106319;1283;24411;-76
2023/04/07 01:23:49;;;;;;;25.60;12.50;;;;;;;;;;106273;1266;22561;-80
2023/04/07 01:26:22;;;;;;;22.50;11.90;;;;;;;;;;106481;1275;24251;-79
2023/04/07 01:29:15;;;;;;;25.80;12.20;;;;;;;;;;107050;1275;23118;-79
2023/04/07 01:31:43;;;;;;;25.80;12.40;;;;;;;;;;107025;1275;22476;-82
2023/04/07 01:34:20;;;;;;;25.20;11.40;;;;;;;;;;107050;1265;22768;-77
2023/04/07 01:36:48;;;;;;;29.10;12.70;;;;;;;;;;107039;1275;22537;-81
2023/04/07 01:43:02;;;;;;;23.70;12.30;;;;;;;;;;106421;1263;22762;-81
2023/04/07 01:45:30;;;;;;;25.40;12.30;;;;;;;;;;106440;1273;22531;-78
2023/04/07 01:47:57;;;;;;;29.80;12.50;;;;;;;;;;106439;1281;25339;-74
2023/04/07 01:50:27;;;;;;;23.80;11.90;;;;;;;;;;106579;1281;22527;-79
2023/04/07 01:52:54;;;;;;;25.60;13.10;;;;;;;;;;106447;1281;24055;-76
2023/04/07 01:56:06;;;;;;;23.20;11.00;;;;;;;;;;106449;1266;24387;-81
2023/04/07 01:58:35;;;;;;;27.20;12.80;;;;;;;;;;106451;1282;22659;-80
2023/04/07 02:01:03;;;;;;;24.00;11.40;;;;;;;;;;106538;1281;25280;-78
2023/04/07 02:03:39;;;;;;;23.00;12.40;;;;;;;;;;106456;1281;22576;-76
2023/04/07 02:06:08;;;;;;;29.30;13.40;;;;;;;;;;106649;1264;22520;-82
2023/04/07 02:08:36;;;;;;;28.20;13.60;;;;;;;;;;106557;1270;25290;-77
2023/04/07 02:11:06;;;;;;;28.90;14.10;;;;;;;;;;106441;1281;22527;-78
2023/04/07 02:13:36;;;;;;;24.90;12.40;;;;;;;;;;106791;1264;22544;-79
2023/04/07 02:16:07;;;;;;;28.70;13.40;;;;;;;;;;106875;1267;25315;-77
2023/04/07 02:22:02;;;;;;;23.90;11.20;;;;;;;;;;106405;1282;22517;-78
2023/04/07 02:24:29;;;;;;;25.70;13.20;;;;;;;;;;106413;1282;22499;-76
2023/04/07 02:26:56;;;;;;;25.60;13.10;;;;;;;;;;106466;1272;22608;-80
2023/04/07 02:29:25;;;;;;;27.60;13.20;;;;;;;;;;106405;1282;22585;-81
2023/04/07 02:31:52;;;;;;;31.90;15.00;;;;;;;;;;106454;1282;24201;-76
2023/04/07 02:34:21;;;;;;;28.70;13.50;;;;;;;;;;106444;1282;23004;-82
2023/04/07 02:37:08;;;;;;;28.60;14.50;;;;;;;;;;106412;1272;22735;-78
2023/04/07 02:39:35;;;;;;;27.50;13.80;;;;;;;;;;106353;1283;22561;-80
2023/04/07 02:42:01;;;;;;;29.50;14.50;;;;;;;;;;106396;1282;25341;-75
2023/04/07 02:44:30;;;;;;;25.40;13.60;;;;;;;;;;106339;1282;22539;-78
2023/04/07 02:46:59;;;;;;;24.70;13.00;;;;;;;;;;106412;1282;22682;-79
2023/04/07 02:49:45;;;;;;;;;;;;;;;;;;;;;
2023/04/07 02:52:12;;;;;;;25.30;13.30;;;;;;;;;;106390;1282;22575;-77
2023/04/07 02:54:47;;;;;;;27.80;14.80;;;;;;;;;;106434;1282;22657;-79
2023/04/07 02:57:18;;;;;;;26.00;12.90;;;;;;;;;;106385;1264;25337;-79
2023/04/07 03:03:51;;;;;;;21.30;9.80;;;;;;;;;;106416;1283;22525;-76
2023/04/07 03:06:25;;;;;;;27.00;13.20;;;;;;;;;;106410;1273;24228;-76
2023/04/07 03:09:09;;;;;;;27.10;12.80;;;;;;;;;;106451;1282;23874;-76
2023/04/07 03:11:36;;;;;;;25.20;13.50;;;;;;;;;;106439;1282;22534;-77
2023/04/07 03:14:03;;;;;;;27.90;15.10;;;;;;;;;;106402;1282;22527;-82
2023/04/07 03:16:30;;;;;;;26.90;13.30;;;;;;;;;;106411;1274;25247;-79
2023/04/07 03:19:17;;;;;;;25.40;13.10;;;;;;;;;;106402;1283;24237;-79
2023/04/07 03:21:47;;;;;;;29.40;13.80;;;;;;;;;;106421;1283;24348;-78
2023/04/07 03:24:17;;;;;;;29.90;15.40;;;;;;;;;;106390;1282;22980;-81
2023/04/07 03:26:46;;;;;;;27.80;14.70;;;;;;;;;;106426;1265;25520;-79
2023/04/07 03:29:39;;;;;;;30.50;15.60;;;;;;;;;;106412;1282;25407;-77
2023/04/07 03:32:07;;;;;;;30.10;15.90;;;;;;;;;;106497;1282;25422;-79
2023/04/07 03:34:39;;;;;;;29.10;15.50;;;;;;;;;;106415;1282;22527;-81
2023/04/07 03:37:06;;;;;;;29.20;15.70;;;;;;;;;;106431;1260;24229;-82
2023/04/07 03:39:36;;;;;;;29.60;15.20;;;;;;;;;;106630;1275;25315;-75
2023/04/07 03:42:04;;;;;;;30.10;15.20;;;;;;;;;;106897;1275;25239;-76
2023/04/07 03:44:32;;;;;;;32.80;15.30;;;;;;;;;;107045;1275;25421;-75
2023/04/07 03:47:11;;;;;;;30.10;15.30;;;;;;;;;;107097;1257;22521;-80
2023/04/07 03:52:47;;;;;;;29.80;15.70;;;;;;;;;;106615;1281;23521;-77
2023/04/07 03:55:22;;;;;;;30.60;16.00;;;;;;;;;;106575;1281;22537;-79
2023/04/07 03:58:10;;;;;;;29.10;15.60;;;;;;;;;;106488;1281;25255;-80
2023/04/07 04:00:37;;;;;;;31.00;15.00;;;;;;;;;;106601;1281;22647;-79
2023/04/07 04:06:36;;;;;;;27.70;13.50;;;;;;;;;;106317;1262;22550;-81
2023/04/07 04:09:21;;;;;;;28.50;15.50;;;;;;;;;;106112;1286;22521;-79
2023/04/07 04:11:52;;;;;;;25.20;14.10;;;;;;;;;;106379;1286;22655;-79
2023/04/07 04:14:19;;;;;;;29.90;13.30;;;;;;;;;;106305;1286;22536;-82
2023/04/07 04:16:53;;;;;;;24.60;12.60;;;;;;;;;;106155;1262;22533;-80
2023/04/07 04:19:30;;;;;;;26.70;13.30;;;;;;;;;;106125;1286;22534;-82
2023/04/07 04:21:58;;;;;;;32.40;15.00;;;;;;;;;;106326;1286;22737;-77
2023/04/07 04:24:25;;;;;;;28.30;14.80;;;;;;;;;;106598;1279;25465;-81
2023/04/07 04:26:53;;;;;;;32.00;14.60;;;;;;;;;;106699;1279;23126;-75
2023/04/07 04:29:40;;;;;;;25.90;12.90;;;;;;;;;;106380;1270;25454;-75
2023/04/07 04:32:08;;;;;;;37.40;15.40;;;;;;;;;;106471;1279;22539;-76
2023/04/07 04:34:59;;;;;;;31.10;15.30;;;;;;;;;;106674;1280;22653;-77
2023/04/07 04:37:29;;;;;;;29.00;14.70;;;;;;;;;;106661;1255;24250;-79
2023/04/07 04:39:57;;;;;;;32.20;14.80;;;;;;;;;;106907;1276;25319;-79
2023/04/07 04:42:45;;;;;;;30.50;15.60;;;;;;;;;;106967;1276;25414;-77
2023/04/07 04:45:22;;;;;;;;;;;;;;;;;;;;;
2023/04/07 04:47:54;;;;;;;33.10;15.50;;;;;;;;;;106962;1257;25250;-76
2023/04/07 04:50:24;;;;;;;32.00;15.80;;;;;;;;;;106917;1275;24211;-80
2023/04/07 04:53:01;;;;;;;;;;;;;;;;;;;;;
2023/04/07 04:55:57;;;;;;;30.20;16.10;;;;;;;;;;106558;1281;25315;-76
2023/04/07 04:58:39;;;;;;;34.90;18.30;;;;;;;;;;106419;1264;24204;-78
2023/04/07 05:01:06;;;;;;;37.00;16.00;;;;;;;;;;106494;1281;25424;-78
2023/04/07 05:03:40;;;;;;;31.20;15.80;;;;;;;;;;106657;1281;23909;-75
2023/04/07 05:06:33;;;;;;;31.30;16.20;;;;;;;;;;106570;1281;25239;-77
2023/04/07 05:09:24;;;;;;;32.50;17.00;;;;;;;;;;106567;1269;22540;-80
2023/04/07 05:12:11;;;;;;;37.50;18.30;;;;;;;;;;106594;1270;22551;-78
2023/04/07 05:15:08;;;;;;;41.00;17.30;;;;;;;;;;106491;1281;24140;-75
2023/04/07 05:21:25;;;;;;;37.70;18.90;;;;;;;;;;106571;1264;22551;-82
2023/04/07 05:23:53;;;;;;;29.60;15.40;;;;;;;;;;106521;1281;24594;-78
2023/04/07 05:26:23;;;;;;;32.30;16.60;;;;;;;;;;106619;1276;25246;-79
2023/04/07 05:28:53;;;;;;;33.50;18.00;;;;;;;;;;106952;1276;22490;-79
2023/04/07 05:31:21;;;;;;;34.10;17.70;;;;;;;;;;107018;1275;22537;-77
2023/04/07 05:33:52;;;;;;;31.60;17.10;;;;;;;;;;106869;1275;22522;-80
2023/04/07 05:36:21;;;;;;;33.40;17.60;;;;;;;;;;107060;1275;22690;-81
2023/04/07 05:38:51;;;;;;;37.30;19.00;;;;;;;;;;107038;1275;25337;-79
2023/04/07 05:41:22;;;;;;;34.40;17.50;;;;;;;;;;107022;1274;25707;-78
2023/04/07 05:43:49;;;;;;;36.10;19.20;;;;;;;;;;106859;1275;22561;-82
2023/04/07 05:46:16;;;;;;;31.90;17.00;;;;;;;;;;107023;1276;24218;-78
2023/04/07 05:49:32;;;;;;;34.50;18.20;;;;;;;;;;106956;1278;22531;-77
2023/04/07 05:52:04;;;;;;;64.20;27.00;;;;;;;;;;106979;1278;22614;-77
2023/04/07 05:54:32;;;;;;;33.10;17.60;;;;;;;;;;106825;1278;25267;-76
2023/04/07 05:57:01;;;;;;;28.10;14.10;;;;;;;;;;106816;1278;25382;-77
2023/04/07 05:59:41;;;;;;;;;;;;;;;;;;;;;
2023/04/07 06:02:58;;;;;;;29.30;14.70;;;;;;;;;;106416;1264;23707;-77
2023/04/07 06:05:25;;;;;;;31.10;15.20;;;;;;;;;;106420;1283;22517;-79
2023/04/07 06:07:53;;;;;;;30.90;14.90;;;;;;;;;;106465;1282;22747;-78
2023/04/07 06:10:21;;;;;;;30.80;15.90;;;;;;;;;;106450;1282;22523;-76
2023/04/07 06:12:48;;;;;;;25.50;13.40;;;;;;;;;;106165;1278;22534;-79
2023/04/07 06:15:15;;;;;;;31.50;15.60;;;;;;;;;;106380;1283;22600;-78
2023/04/07 06:17:44;;;;;;;30.60;14.80;;;;;;;;;;106415;1283;23003;-80
2023/04/07 06:20:31;;;;;;;28.60;13.40;;;;;;;;;;106379;1281;22509;-77
2023/04/07 06:22:58;;;;;;;36.80;17.70;;;;;;;;;;106250;1263;22551;-79
2023/04/07 06:25:28;;;;;;;33.90;14.60;;;;;;;;;;106177;1281;24254;-83
2023/04/07 06:27:55;;;;;;;34.90;18.80;;;;;;;;;;106409;1281;22579;-78
2023/04/07 06:30:25;;;;;;;39.00;18.60;;;;;;;;;;106418;1281;24315;-78
2023/04/07 06:32:53;;;;;;;30.80;16.40;;;;;;;;;;106565;1275;22520;-80
2023/04/07 06:35:20;;;;;;;35.50;19.10;;;;;;;;;;106866;1261;24266;-79
2023/04/07 06:37:50;;;;;;;35.20;18.30;;;;;;;;;;107088;1275;25467;-78
2023/04/07 06:40:17;;;;;;;37.50;19.90;;;;;;;;;;107065;1275;25277;-79
2023/04/07 06:45:59;;;;;;;33.00;19.40;;;;;;;;;;107130;1274;25808;-76
2023/04/07 06:48:30;;;;;;;32.40;15.50;;;;;;;;;;106883;1274;25404;-77
2023/04/07 06:51:02;;;;;;;23.40;13.00;;;;;;;;;;106946;1257;22766;-81
2023/04/07 06:53:29;;;;;;;27.00;14.70;;;;;;;;;;106796;1275;24355;-78
2023/04/07 06:56:06;;;;;;;22.40;12.00;;;;;;;;;;106962;1274;25456;-81
2023/04/07 06:58:33;;;;;;;27.60;15.30;;;;;;;;;;107019;1274;25339;-78
2023/04/07 07:01:25;;;;;;;31.30;16.20;;;;;;;;;;106874;1274;25460;-79
2023/04/07 07:04:06;;;;;;;;;;;;;;;;;;;;;
2023/04/07 07:06:44;;;;;;;26.10;14.90;;;;;;;;;;107159;1274;24216;-78
2023/04/07 07:09:11;;;;;;;30.10;16.60;;;;;;;;;;107157;1274;24199;-78
2023/04/07 07:11:39;;;;;;;28.80;16.60;;;;;;;;;;106978;1274;22482;-79
2023/04/07 07:14:08;;;;;;;27.90;14.60;;;;;;;;;;106856;1254;22526;-80
2023/04/07 07:16:36;;;;;;;27.20;14.70;;;;;;;;;;106900;1265;22547;-79
2023/04/07 07:21:58;;;;;;;24.30;13.80;;;;;;;;;;106447;1281;22586;-83
2023/04/07 07:24:35;;;;;;;;;;;;;;;;;;;;;
2023/04/07 07:27:33;;;;;;;30.50;15.40;;;;;;;;;;106173;1287;22538;-78
2023/04/07 07:30:30;;;;;;;28.70;14.20;;;;;;;;;;106197;1287;24362;-82
2023/04/07 07:32:57;;;;;;;30.20;15.40;;;;;;;;;;106096;1263;24151;-81
2023/04/07 07:35:24;;;;;;;31.40;15.80;;;;;;;;;;106018;1286;22554;-78
2023/04/07 07:39:06;;;;;;;26.60;12.90;;;;;;;;;;105892;1291;22521;-79
2023/04/07 07:41:34;;;;;;;29.00;13.10;;;;;;;;;;105646;1291;25386;-77
2023/04/07 07:44:04;;;;;;;26.50;12.90;;;;;;;;;;105829;1274;22581;-81
2023/04/07 07:46:31;;;;;;;27.80;13.50;;;;;;;;;;105883;1291;24274;-83
2023/04/07 07:49:00;;;;;;;29.30;16.30;;;;;;;;;;105800;1291;24265;-83
2023/04/07 07:51:27;;;;;;;33.70;19.00;;;;;;;;;;105881;1291;24311;-84
2023/04/07 07:54:47;;;;;;;36.70;22.20;;;;;;;;;;105900;1273;24245;-79
2023/04/07 07:57:14;;;;;;;25.80;11.70;;;;;;;;;;105857;1286;22965;-77
2023/04/07 08:03:09;;;;;;;21.00;10.20;;;;;;;;;;105611;1291;26896;-77
2023/04/07 08:05:49;;;;;;;23.30;12.50;;;;;;;;;;105672;1291;25724;-79
2023/04/07 08:08:16;;;;;;;23.20;11.60;;;;;;;;;;105874;1291;22617;-77
2023/04/07 08:10:43;;;;;;;25.30;13.80;;;;;;;;;;105778;1291;25280;-78
2023/04/07 08:13:10;;;;;;;25.50;14.50;;;;;;;;;;105877;1291;25335;-78
2023/04/07 08:16:12;;;;;;;28.00;13.80;;;;;;;;;;105954;1273;24222;-81
2023/04/07 08:19:00;;;;;;;20.30;11.70;;;;;;;;;;105913;1290;22543;-82
2023/04/07 08:24:41;;;;;;;22.70;11.30;;;;;;;;;;105910;1270;25288;-79
2023/04/07 08:27:11;;;;;;;18.70;9.70;;;;;;;;;;105932;1289;24347;-76
2023/04/07 08:29:40;;;;;;;16.80;8.90;;;;;;;;;;105990;1289;22569;-77
2023/04/07 08:32:35;;;;;;;18.10;7.80;;;;;;;;;;106019;1285;24270;-79
2023/04/07 08:35:26;;;;;;;13.40;6.90;;;;;;;;;;106264;1263;22537;-78
2023/04/07 08:38:02;;;;;;;13.60;7.10;;;;;;;;;;106272;1285;24378;-75
2023/04/07 08:40:29;;;;;;;18.60;9.60;;;;;;;;;;106236;1285;24236;-76
2023/04/07 08:42:58;;;;;;;15.00;8.00;;;;;;;;;;106295;1285;25278;-80
2023/04/07 08:45:25;;;;;;;15.20;7.70;;;;;;;;;;106347;1266;22814;-76
2023/04/07 08:47:56;;;;;;;14.00;7.10;;;;;;;;;;106341;1284;24341;-79
2023/04/07 08:50:25;;;;;;;17.00;8.50;;;;;;;;;;106593;1281;24207;-78
2023/04/07 08:52:56;;;;;;;16.90;8.00;;;;;;;;;;106603;1281;25236;-77
2023/04/07 08:55:24;;;;;;;18.70;9.70;;;;;;;;;;106629;1280;22521;-77
2023/04/07 09:04:54;;;;;;;16.80;9.10;;;;;;;;;;106170;1267;22607;-77
2023/04/07 09:07:21;;;;;;;16.70;9.50;;;;;;;;;;106234;1285;22529;-80
2023/04/07 09:09:51;;;;;;;16.30;8.70;;;;;;;;;;106241;1285;25331;-80
2023/04/07 09:13:14;;;;;;;20.30;9.40;;;;;;;;;;106255;1285;22527;-80
2023/04/07 09:15:44;;;;;;;20.60;10.50;;;;;;;;;;106239;1285;22653;-81
2023/04/07 09:18:20;;;;;;;19.80;10.70;;;;;;;;;;106298;1286;22534;-80
2023/04/07 09:21:03;;;;;;;19.40;10.30;;;;;;;;;;106229;1286;22553;-80
2023/04/07 09:23:32;;;;;;;18.10;10.90;;;;;;;;;;106157;1286;22982;-80
2023/04/07 09:30:09;;;;;;;19.20;9.40;;;;;;;;;;105971;1290;22547;-79
2023/04/07 09:32:42;;;;;;;19.50;10.40;;;;;;;;;;105906;1290;25679;-79
2023/04/07 09:35:52;;;;;;;20.50;10.00;;;;;;;;;;105558;1277;24240;-80
2023/04/07 09:51:14;;;;;;;23.50;15.40;;;;;;;;;;103866;1289;549030;-82
2023/04/07 09:54:02;;;;;;;20.60;10.80;;;;;;;;;;105892;1289;22547;-79
2023/04/07 09:59:45;;;;;;;18.10;10.40;;;;;;;;;;106008;1267;24211;-79
2023/04/07 10:02:25;;;;;;;18.90;10.90;;;;;;;;;;105841;1289;22880;-78
2023/04/07 10:05:30;;;;;;;17.80;10.10;;;;;;;;;;104641;1280;2617605;-83
2023/04/07 10:08:18;;;;;;;15.10;8.30;;;;;;;;;;106697;1279;22546;-81
2023/04/07 10:11:09;;;;;;;15.80;7.30;;;;;;;;;;106698;1268;22790;-79
2023/04/07 10:13:38;;;;;;;17.70;9.00;;;;;;;;;;106777;1260;22534;-77
2023/04/07 10:16:13;;;;;;;28.40;15.80;;;;;;;;;;106717;1279;25372;-81
2023/04/07 10:18:43;;;;;;;20.50;11.70;;;;;;;;;;106533;1279;25477;-78
2023/04/07 10:21:14;;;;;;;17.40;8.60;;;;;;;;;;106750;1261;24355;-78
2023/04/07 10:23:47;;;;;;;17.90;9.60;;;;;;;;;;106731;1271;23915;-81
2023/04/07 10:26:16;;;;;;;19.60;9.50;;;;;;;;;;106499;1281;25350;-81
2023/04/07 10:28:45;;;;;;;20.10;8.90;;;;;;;;;;106689;1267;25185;-80
2023/04/07 10:31:17;;;;;;;14.70;7.50;;;;;;;;;;106592;1278;23876;-80
2023/04/07 10:34:11;;;;;;;15.10;7.80;;;;;;;;;;106698;1278;23869;-81
2023/04/07 10:37:16;;;;;;;15.90;8.30;;;;;;;;;;106660;1278;22552;-79
2023/04/07 10:40:05;;;;;;;16.70;7.20;;;;;;;;;;106149;1285;24242;-80
2023/04/07 10:42:38;;;;;;;22.60;12.00;;;;;;;;;;106279;1267;22540;-79
2023/04/07 10:45:05;;;;;;;158.00;86.30;;;;;;;;;;106392;1282;22540;-79
2023/04/07 10:51:11;;;;;;;19.50;9.10;;;;;;;;;;105991;1267;25594;-80
2023/04/07 10:54:30;;;;;;;;;;;;;;;;;;;;;
2023/04/07 10:57:11;;;;;;;14.40;7.50;;;;;;;;;;105779;1292;25423;-78
2023/04/07 11:00:17;;;;;;;15.80;7.80;;;;;;;;;;105685;1292;24240;-82
2023/04/07 11:03:03;;;;;;;16.30;7.10;;;;;;;;;;105690;1285;22587;-79
2023/04/07 11:05:42;;;;;;;;;;;;;;;;;;;;;
2023/04/07 11:09:32;;;;;;;13.40;6.50;;;;;;;;;;105260;1298;23890;-81
2023/04/07 11:12:22;;;;;;;13.80;6.80;;;;;;;;;;104765;1286;22553;-79
2023/04/07 11:14:48;;;;;;;16.30;7.60;;;;;;;;;;105502;1293;25555;-77
2023/04/07 11:20:21;;;;;;;19.10;7.40;;;;;;;;;;105633;1293;22549;-79
2023/04/07 11:23:06;;;;;;;15.00;7.70;;;;;;;;;;105620;1293;24338;-79
2023/04/07 11:25:37;;;;;;;15.30;7.60;;;;;;;;;;105667;1293;24243;-78
2023/04/07 11:28:04;;;;;;;16.70;8.20;;;;;;;;;;105887;1283;25909;-79
2023/04/07 11:30:51;;;;;;;14.30;6.60;;;;;;;;;;106322;1282;22543;-82
2023/04/07 11:33:18;;;;;;;17.50;9.70;;;;;;;;;;106360;1264;22651;-75
2023/04/07 11:36:21;;;;;;;;;;;;;;;;;;;;;
2023/04/07 11:38:48;;;;;;;17.60;9.20;;;;;;;;;;106335;1276;24732;-76
2023/04/07 11:41:16;;;;;;;16.40;9.90;;;;;;;;;;106677;1276;26057;-77
2023/04/07 11:43:46;;;;;;;19.60;10.40;;;;;;;;;;106811;1257;24263;-77
2023/04/07 11:46:16;;;;;;;15.00;9.10;;;;;;;;;;106775;1277;24295;-77
2023/04/07 11:48:53;;;;;;;17.90;8.80;;;;;;;;;;106844;1277;24253;-78
2023/04/07 11:51:24;;;;;;;16.00;8.80;;;;;;;;;;106831;1276;22614;-85
2023/04/07 11:54:04;;;;;;;14.60;7.90;;;;;;;;;;106874;1261;24334;-78
2023/04/07 11:56:40;;;;;;;13.90;7.90;;;;;;;;;;106914;1276;22534;-84
2023/04/07 11:59:06;;;;;;;15.40;8.60;;;;;;;;;;106884;1276;22621;-79
2023/04/07 12:01:43;;;;;;;16.50;7.50;;;;;;;;;;107140;1274;22535;-82
2023/04/07 12:04:18;;;;;;;16.80;8.90;;;;;;;;;;107041;1258;22541;-82
2023/04/07 12:06:45;;;;;;;17.20;9.10;;;;;;;;;;106967;1274;24440;-77
2023/04/07 12:09:31;;;;;;;14.40;8.30;;;;;;;;;;106953;1274;22631;-77
2023/04/07 12:12:01;;;;;;;17.90;8.20;;;;;;;;;;107019;1274;24303;-77
2023/04/07 12:14:31;;;;;;;15.70;7.70;;;;;;;;;;107090;1255;22525;-80
2023/04/07 12:16:57;;;;;;;15.50;8.80;;;;;;;;;;107173;1274;26461;-78
2023/04/07 12:19:27;;;;;;;14.30;8.20;;;;;;;;;;107141;1274;22605;-76
2023/04/07 12:21:54;;;;;;;14.90;8.70;;;;;;;;;;107060;1274;22490;-78
2023/04/07 12:24:21;;;;;;;16.80;9.00;;;;;;;;;;107013;1256;22561;-77
2023/04/07 12:26:47;;;;;;;20.00;9.80;;;;;;;;;;106953;1274;24414;-78
2023/04/07 12:29:26;;;;;;;18.80;9.70;;;;;;;;;;106871;1274;22576;-79
2023/04/07 12:31:55;;;;;;;17.40;9.10;;;;;;;;;;106870;1273;22561;-76
2023/04/07 12:34:28;;;;;;;15.60;7.70;;;;;;;;;;107032;1257;24192;-76
2023/04/07 12:36:54;;;;;;;20.70;10.20;;;;;;;;;;107231;1274;25360;-77
2023/04/07 12:39:51;;;;;;;;;;;;;;;;;;;;;
2023/04/07 12:42:33;;;;;;;16.40;7.80;;;;;;;;;;107112;1274;22524;-79
2023/04/07 12:45:08;;;;;;;19.60;9.60;;;;;;;;;;107099;1267;22543;-76
2023/04/07 12:47:35;;;;;;;27.30;13.70;;;;;;;;;;106920;1258;23423;-80
2023/04/07 12:50:01;;;;;;;20.70;9.40;;;;;;;;;;106932;1274;22530;-76
2023/04/07 12:52:48;;;;;;;14.00;7.30;;;;;;;;;;107067;1271;24235;-77
2023/04/07 12:55:32;;;;;;;;;;;;;;;;;;;;;
2023/04/07 12:58:08;;;;;;;12.50;6.90;;;;;;;;;;107107;1274;23911;-78
2023/04/07 13:00:34;;;;;;;12.30;6.20;;;;;;;;;;107106;1274;22501;-79
2023/04/07 13:03:04;;;;;;;11.10;6.00;;;;;;;;;;107032;1274;22666;-76
2023/04/07 13:06:00;;;;;;;;;;;;;;;;;;;;;
2023/04/07 13:08:29;;;;;;;12.90;6.00;;;;;;;;;;107018;1274;25368;-77
2023/04/07 13:10:56;;;;;;;12.20;6.30;;;;;;;;;;106882;1274;22590;-78
2023/04/07 13:13:23;;;;;;;10.70;4.90;;;;;;;;;;107085;1274;24196;-77
2023/04/07 13:16:00;;;;;;;12.10;5.80;;;;;;;;;;106874;1270;22579;-79
2023/04/07 13:18:26;;;;;;;13.70;5.80;;;;;;;;;;107199;1274;22550;-82
2023/04/07 13:20:55;;;;;;;15.60;6.40;;;;;;;;;;106918;1274;22538;-77
2023/04/07 13:23:21;;;;;;;11.40;4.80;;;;;;;;;;107087;1274;22596;-76
2023/04/07 13:26:00;;;;;;;13.40;6.00;;;;;;;;;;107058;1255;22714;-77
2023/04/07 13:28:56;;;;;;;18.80;9.40;;;;;;;;;;107046;1274;25317;-79
2023/04/07 13:31:32;;;;;;;17.40;7.60;;;;;;;;;;107110;1274;22526;-80
2023/04/07 13:33:58;;;;;;;24.60;11.30;;;;;;;;;;107108;1251;25464;-80
2023/04/07 13:36:50;;;;;;;16.80;7.10;;;;;;;;;;106939;1274;25386;-78
2023/04/07 13:39:17;;;;;;;18.20;7.40;;;;;;;;;;107051;1274;22603;-76
2023/04/07 13:41:53;;;;;;;23.40;10.00;;;;;;;;;;107099;1270;22530;-78
2023/04/07 13:44:20;;;;;;;17.00;8.40;;;;;;;;;;107091;1251;22530;-76
2023/04/07 13:46:55;;;;;;;25.80;10.80;;;;;;;;;;106988;1274;24025;-75
2023/04/07 13:49:21;;;;;;;17.70;7.80;;;;;;;;;;106855;1274;25678;-75
2023/04/07 13:51:48;;;;;;;37.20;15.70;;;;;;;;;;106805;1274;22576;-81
2023/04/07 13:58:10;;;;;;;13.50;6.60;;;;;;;;;;106603;1270;24547;-79
2023/04/07 14:00:37;;;;;;;17.50;10.20;;;;;;;;;;106672;1281;22489;-80
2023/04/07 14:06:48;;;;;;;12.60;7.20;;;;;;;;;;106662;1273;22546;-81
2023/04/07 14:09:17;;;;;;;12.20;5.80;;;;;;;;;;106598;1281;23963;-78
2023/04/07 14:11:48;;;;;;;15.00;8.00;;;;;;;;;;106666;1281;24098;-75
2023/04/07 14:14:14;;;;;;;14.00;7.90;;;;;;;;;;106721;1281;22546;-81
2023/04/07 14:16:43;;;;;;;10.60;5.10;;;;;;;;;;106406;1264;22674;-79
2023/04/07 14:19:09;;;;;;;11.20;5.70;;;;;;;;;;106654;1281;25478;-81
2023/04/07 14:21:46;;;;;;;;;;;;;;;;;;;;;
2023/04/07 14:24:48;;;;;;;15.10;8.40;;;;;;;;;;106650;1281;22659;-79
2023/04/07 14:27:19;;;;;;;23.70;14.90;;;;;;;;;;106525;1280;25198;-77
2023/04/07 14:29:46;;;;;;;15.80;8.10;;;;;;;;;;106696;1280;22530;-80
2023/04/07 14:32:15;;;;;;;16.60;10.30;;;;;;;;;;106676;1280;22666;-78
2023/04/07 14:34:42;;;;;;;15.30;6.60;;;;;;;;;;106826;1274;22586;-76
2023/04/07 14:37:08;;;;;;;26.80;14.60;;;;;;;;;;107067;1256;22585;-82
2023/04/07 14:39:38;;;;;;;21.10;10.50;;;;;;;;;;107100;1274;24807;-79
2023/04/07 14:42:04;;;;;;;35.20;18.00;;;;;;;;;;107150;1274;22527;-80
2023/04/07 14:44:33;;;;;;;23.20;12.00;;;;;;;;;;107127;1274;25331;-75
2023/04/07 14:47:00;;;;;;;15.30;7.10;;;;;;;;;;107108;1274;25044;-78
2023/04/07 14:49:28;;;;;;;19.30;9.90;;;;;;;;;;107056;1274;24359;-80
2023/04/07 14:51:55;;;;;;;17.50;8.60;;;;;;;;;;107050;1274;22629;-77
2023/04/07 14:54:22;;;;;;;32.30;17.10;;;;;;;;;;107088;1274;22559;-76
2023/04/07 14:57:08;;;;;;;24.70;12.50;;;;;;;;;;107120;1256;25459;-82
2023/04/07 14:59:37;;;;;;;33.00;18.50;;;;;;;;;;107155;1274;22657;-75
2023/04/07 15:02:06;;;;;;;23.00;12.00;;;;;;;;;;107173;1274;24185;-81
2023/04/07 15:04:34;;;;;;;24.70;13.90;;;;;;;;;;107132;1274;25217;-79
2023/04/07 15:07:06;;;;;;;19.60;10.30;;;;;;;;;;107076;1254;22523;-79
2023/04/07 15:09:32;;;;;;;14.90;7.60;;;;;;;;;;107076;1274;22520;-76
2023/04/07 15:12:01;;;;;;;25.70;13.30;;;;;;;;;;107129;1274;22574;-75
2023/04/07 15:18:04;;;;;;;16.50;9.00;;;;;;;;;;106732;1261;24052;-79
2023/04/07 15:20:30;;;;;;;26.20;15.40;;;;;;;;;;106735;1279;22549;-76
2023/04/07 15:22:56;;;;;;;23.00;13.00;;;;;;;;;;106764;1279;25482;-79
2023/04/07 15:25:23;;;;;;;20.80;10.60;;;;;;;;;;106817;1279;25348;-77
2023/04/07 15:27:49;;;;;;;19.50;11.60;;;;;;;;;;106722;1260;24299;-82
2023/04/07 15:30:15;;;;;;;30.30;13.60;;;;;;;;;;106716;1279;25374;-77
2023/04/07 15:32:57;;;;;;;25.50;12.30;;;;;;;;;;106677;1279;22545;-81
2023/04/07 15:35:26;;;;;;;22.80;10.70;;;;;;;;;;106733;1279;22790;-79
2023/04/07 15:37:55;;;;;;;32.80;13.90;;;;;;;;;;106742;1261;25210;-77
2023/04/07 15:40:26;;;;;;;37.60;15.00;;;;;;;;;;106787;1256;22558;-79
2023/04/07 15:42:57;;;;;;;56.60;20.80;;;;;;;;;;106694;1279;25302;-78
2023/04/07 15:45:25;;;;;;;38.20;13.40;;;;;;;;;;106712;1279;23011;-76
2023/04/07 15:48:23;;;;;;;;;;;;;;;;;;;;;
2023/04/07 15:54:54;;;;;;;31.50;12.60;;;;;;;;;;106790;1278;23842;-82
2023/04/07 15:57:41;;;;;;;36.70;15.10;;;;;;;;;;106781;1279;22580;-76
2023/04/07 16:00:12;;;;;;;29.90;11.80;;;;;;;;;;106730;1260;24218;-79
2023/04/07 16:02:51;;;;;;;24.30;11.00;;;;;;;;;;106741;1279;22519;-79
2023/04/07 16:05:17;;;;;;;29.50;12.80;;;;;;;;;;106762;1279;22544;-81
2023/04/07 16:07:53;;;;;;;40.90;16.80;;;;;;;;;;106749;1259;26650;-81
2023/04/07 16:17:39;;;;;;;60.10;24.40;;;;;;;;;;106386;1260;22669;-79
2023/04/07 16:20:17;;;;;;;33.40;14.60;;;;;;;;;;106349;1284;22616;-78
2023/04/07 16:22:55;;;;;;;;;;;;;;;;;;;;;
2023/04/07 16:30:02;;;;;;;;;;;;;;;;;;;;;
2023/04/07 16:32:26;;;;;;;61.60;23.70;;;;;;;;;;106385;1284;22540;-78
2023/04/07 16:34:55;;;;;;;55.90;34.90;;;;;;;;;;106361;1284;22543;-77
2023/04/07 16:37:24;;;;;;;31.00;16.70;;;;;;;;;;106385;1284;25413;-78
2023/04/07 16:40:11;;;;;;;32.60;16.50;;;;;;;;;;106208;1268;22622;-77
2023/04/07 16:42:43;;;;;;;31.40;16.30;;;;;;;;;;106021;1287;22554;-84
2023/04/07 16:49:55;;;;;;;;;;;;;;;;;;;;;
2023/04/07 16:53:24;;;;;;;26.30;14.90;;;;;;;;;;105506;1296;25380;-78
2023/04/07 16:55:51;;;;;;;26.60;14.10;;;;;;;;;;108756;1296;22393;-75
2023/04/07 16:58:18;;;;;;;26.30;15.20;;;;;;;;;;108803;1297;22359;-76
2023/04/07 17:00:47;;;;;;;26.00;14.00;;;;;;;;;;108854;1280;23047;-76